Time;durP1;ratioP1;P1;durP2;ratioP2;P2;SDS_P1;SDS_P2;PMS_P1;PMS_P2;Temp;Humidity;BMP_temperature;BMP_pressure;BME280_temperature;BME280_humidity;BME280_pressure;Samples;Min_cycle;Max_cycle;Signal;HPM_P1;HPM_P2
2023/08/03 00:01:04;;;;;;;1.52;0.30;;;20.80;99.90;;;;;;4845257;29;20069;-80
2023/08/03 00:06:46;;;;;;;2.38;0.22;;;20.70;99.90;;;;;;4837719;29;20042;-80
2023/08/03 00:09:13;;;;;;;0.80;0.30;;;20.80;99.90;;;;;;4819470;29;20054;-80
2023/08/03 00:11:46;;;;;;;1.20;0.40;;;20.80;99.90;;;;;;4840453;29;20053;-80
2023/08/03 00:14:13;;;;;;;1.52;0.20;;;20.70;99.90;;;;;;4845823;29;20058;-80
2023/08/03 00:16:40;;;;;;;1.65;0.40;;;20.80;99.90;;;;;;4806616;29;20112;-80
2023/08/03 00:19:17;;;;;;;1.27;0.30;;;20.80;99.90;;;;;;4826348;29;20046;-80
2023/08/03 00:21:44;;;;;;;0.60;0.20;;;20.80;99.90;;;;;;4816162;29;20134;-80
2023/08/03 00:24:15;;;;;;;3.42;0.40;;;20.70;99.90;;;;;;4809117;29;20087;-80
2023/08/03 00:26:45;;;;;;;1.00;0.30;;;20.80;99.90;;;;;;4814920;29;20073;-80
2023/08/03 00:29:12;;;;;;;1.85;0.30;;;20.70;99.90;;;;;;4802993;29;20054;-80
2023/08/03 00:31:39;;;;;;;7.90;1.30;;;20.70;99.90;;;;;;4840158;29;20120;-80
2023/08/03 00:34:07;;;;;;;1.70;0.30;;;20.70;99.90;;;;;;4842844;29;20509;-80
2023/08/03 00:36:34;;;;;;;0.60;0.20;;;20.70;99.90;;;;;;4823367;29;20517;-80
2023/08/03 00:39:02;;;;;;;1.23;0.30;;;20.70;99.90;;;;;;4817638;29;20141;-80
2023/08/03 00:41:31;;;;;;;1.50;0.40;;;20.70;99.90;;;;;;4837831;29;20050;-80
2023/08/03 00:43:58;;;;;;;1.02;0.70;;;20.70;99.90;;;;;;4844136;29;20066;-80
2023/08/03 00:46:28;;;;;;;1.30;0.38;;;20.70;99.90;;;;;;4848660;29;20093;-80
2023/08/03 00:48:55;;;;;;;1.00;0.40;;;20.70;99.90;;;;;;4833073;29;20077;-80
2023/08/03 00:51:30;;;;;;;2.65;0.40;;;20.70;99.90;;;;;;4841369;29;20068;-80
2023/08/03 00:53:57;;;;;;;0.90;0.38;;;20.60;99.90;;;;;;4839955;29;20075;-80
2023/08/03 00:56:27;;;;;;;1.10;0.70;;;20.60;99.90;;;;;;4823739;29;20110;-80
2023/08/03 00:58:57;;;;;;;1.15;0.32;;;20.70;99.90;;;;;;4824489;29;20752;-80
2023/08/03 01:01:32;;;;;;;1.48;0.50;;;20.70;99.90;;;;;;4927821;24;20131;-80
2023/08/03 01:04:00;;;;;;;1.23;0.50;;;20.70;99.90;;;;;;5032623;24;20102;-80
2023/08/03 01:06:27;;;;;;;1.02;0.30;;;20.60;99.90;;;;;;4858998;29;20094;-80
2023/08/03 01:11:57;;;;;;;0.93;0.30;;;20.60;99.90;;;;;;5009400;24;20057;-80
2023/08/03 01:14:27;;;;;;;1.40;0.40;;;20.60;99.90;;;;;;4834452;29;20057;-80
2023/08/03 01:17:02;;;;;;;2.05;0.55;;;20.60;99.90;;;;;;5056579;23;20028;-81
2023/08/03 01:53:57;;;;;;;2.88;0.60;;;20.30;99.90;;;;;;5187597;23;20057;-80
2023/08/03 01:56:30;;;;;;;2.75;1.15;;;20.30;99.90;;;;;;5344772;23;20053;-79
2023/08/03 01:59:00;;;;;;;2.67;0.57;;;20.20;99.90;;;;;;5259825;24;20062;-79
2023/08/03 02:05:11;;;;;;;5.18;0.60;;;20.20;99.90;;;;;;2138643;23;20304;-77
2023/08/03 02:08:16;;;;;;;1.75;0.70;;;20.20;99.90;;;;;;4892938;24;20126;31
2023/08/03 02:11:17;;;;;;;2.30;0.45;;;20.20;99.90;;;;;;4974341;24;20039;-80
2023/08/03 02:13:45;;;;;;;0.98;0.50;;;20.20;99.90;;;;;;4860035;29;20134;-81
2023/08/03 02:16:12;;;;;;;2.88;0.70;;;20.20;99.90;;;;;;4856558;29;20083;-82
2023/08/03 02:42:58;;;;;;;2.00;0.65;;;19.90;99.90;;;;;;3115547;23;20461;-79
2023/08/03 02:49:17;;;;;;;2.58;0.90;;;19.90;99.90;;;;;;5469993;23;20056;-80
2023/08/03 03:05:13;;;;;;;2.88;1.00;;;19.70;99.90;;;;;;4880606;29;20037;-81
2023/08/03 03:07:45;;;;;;;2.00;0.75;;;19.70;99.90;;;;;;4854662;29;20058;-81
2023/08/03 03:10:13;;;;;;;4.20;1.30;;;19.70;99.90;;;;;;4875670;29;20061;-81
2023/08/03 03:12:59;;;;;;;2.55;1.00;;;19.70;99.90;;;;;;4846579;29;20069;-82
2023/08/03 03:15:28;;;;;;;4.00;1.65;;;19.70;99.90;;;;;;4837288;29;20044;-81
2023/08/03 03:39:48;;;;;;;2.47;1.10;;;19.60;99.90;;;;;;5364012;24;20912;31
2023/08/03 03:42:30;;;;;;;2.42;1.10;;;19.70;99.90;;;;;;4806500;29;20055;-81
2023/08/03 04:09:55;;;;;;;4.65;1.35;;;19.90;99.90;;;;;;4851953;29;20065;-80
2023/08/03 04:12:22;;;;;;;2.55;1.20;;;19.90;99.90;;;;;;4787265;29;20051;-81
2023/08/03 04:14:49;;;;;;;3.60;1.30;;;20.00;99.90;;;;;;4787530;29;20104;-80
2023/08/03 04:17:20;;;;;;;4.43;1.30;;;20.00;99.90;;;;;;4770330;29;20055;-80
2023/08/03 04:22:39;;;;;;;2.95;1.15;;;20.30;99.90;;;;;;4822973;29;20047;-80
2023/08/03 04:25:07;;;;;;;2.92;1.00;;;20.30;99.90;;;;;;4807083;29;20490;-80
2023/08/03 04:27:36;;;;;;;2.72;1.02;;;20.30;99.90;;;;;;4822932;29;20693;-80
2023/08/03 04:30:06;;;;;;;3.67;1.30;;;20.30;99.90;;;;;;4798643;29;20521;-80
2023/08/03 04:32:37;;;;;;;2.47;1.40;;;20.30;99.90;;;;;;5092162;24;20057;-80
2023/08/03 04:35:15;;;;;;;4.15;1.63;;;20.30;99.90;;;;;;4991180;23;20057;-79
2023/08/03 04:37:52;;;;;;;3.78;1.30;;;20.30;99.90;;;;;;5323053;23;20485;-80
2023/08/03 04:40:20;;;;;;;4.65;1.08;;;20.40;99.90;;;;;;4844238;29;20041;-80
2023/08/03 04:42:47;;;;;;;3.03;1.33;;;20.40;99.90;;;;;;4829648;29;20052;-80
2023/08/03 04:48:31;;;;;;;3.92;1.10;;;20.50;99.90;;;;;;5208960;23;20082;-81
2023/08/03 04:51:01;;;;;;;3.13;1.70;;;20.50;99.90;;;;;;4846940;29;20049;-81
2023/08/03 04:53:28;;;;;;;3.85;1.95;;;20.50;99.90;;;;;;5228784;23;20069;-80
2023/08/03 04:55:56;;;;;;;2.25;1.13;;;20.50;99.90;;;;;;4875060;24;20078;-80
2023/08/03 04:58:23;;;;;;;3.38;1.40;;;20.50;99.90;;;;;;4819074;29;20121;-79
2023/08/03 05:00:51;;;;;;;2.95;1.70;;;20.60;99.90;;;;;;4807021;29;20084;-80
2023/08/03 05:06:07;;;;;;;2.30;1.45;;;20.70;99.90;;;;;;5062682;23;20100;-81
2023/08/03 05:08:34;;;;;;;5.28;1.52;;;20.80;99.90;;;;;;4845917;29;20139;-79
2023/08/03 05:11:27;;;;;;;2.55;1.38;;;20.90;99.90;;;;;;4836551;29;20103;-80
2023/08/03 05:13:54;;;;;;;;;;;20.90;99.90;;;;;;4761863;29;20107;-80
2023/08/03 05:16:24;;;;;;;3.22;1.80;;;21.00;99.90;;;;;;4774020;29;22355;-80
2023/08/03 05:18:52;;;;;;;2.83;1.58;;;21.10;99.90;;;;;;4779200;29;20192;-80
2023/08/03 05:21:21;;;;;;;4.63;2.13;;;21.10;99.90;;;;;;4776186;29;20174;-81
2023/08/03 05:23:48;;;;;;;4.15;1.77;;;21.20;99.90;;;;;;4778047;29;20055;-80
2023/08/03 05:26:15;;;;;;;3.65;1.60;;;21.30;99.90;;;;;;4791508;29;20050;-79
2023/08/03 05:28:45;;;;;;;3.22;1.58;;;21.40;99.90;;;;;;4792704;29;20146;-80
2023/08/03 05:31:17;;;;;;;4.50;1.73;;;21.50;99.90;;;;;;4791922;29;20054;-81
2023/08/03 05:33:44;;;;;;;4.30;2.00;;;21.60;99.90;;;;;;4790384;29;20046;-80
2023/08/03 05:36:12;;;;;;;5.60;1.60;;;21.80;99.90;;;;;;4795899;29;20047;-81
2023/08/03 05:38:42;;;;;;;2.00;1.23;;;21.90;99.90;;;;;;4778310;29;20050;-80
2023/08/03 05:41:15;;;;;;;4.40;2.22;;;22.10;99.90;;;;;;4769291;29;20073;-79
2023/08/03 05:43:47;;;;;;;4.25;2.30;;;22.20;99.90;;;;;;4802876;29;20065;-81
2023/08/03 05:46:15;;;;;;;4.88;2.00;;;22.40;99.90;;;;;;4769226;29;20078;-80
2023/08/03 05:48:52;;;;;;;4.82;1.88;;;22.50;99.90;;;;;;4790853;29;20127;-80
2023/08/03 05:51:26;;;;;;;2.97;1.90;;;22.70;99.90;;;;;;4812750;29;20071;-81
2023/08/03 05:53:55;;;;;;;5.72;1.80;;;22.90;99.90;;;;;;4808188;29;20062;-81
2023/08/03 05:56:23;;;;;;;3.00;1.77;;;23.10;99.90;;;;;;4804871;29;20059;-79
2023/08/03 05:58:52;;;;;;;4.47;1.73;;;23.20;99.90;;;;;;4779428;29;20062;-80
2023/08/03 06:01:39;;;;;;;4.28;2.17;;;23.40;99.90;;;;;;4763501;30;20123;-79
2023/08/03 06:04:11;;;;;;;6.18;2.30;;;23.50;99.90;;;;;;4778170;29;20074;-81
2023/08/03 06:06:38;;;;;;;3.63;1.83;;;23.70;99.90;;;;;;4756379;30;20143;-81
2023/08/03 06:09:13;;;;;;;5.90;2.47;;;23.80;99.90;;;;;;4765753;30;20067;-80
2023/08/03 06:11:46;;;;;;;4.82;2.05;;;23.90;99.90;;;;;;4805627;29;20067;-82
2023/08/03 06:14:17;;;;;;;6.38;2.00;;;24.10;99.90;;;;;;4814594;29;20046;-83
2023/08/03 06:16:46;;;;;;;5.80;1.70;;;24.30;99.90;;;;;;4772283;29;20538;-81
2023/08/03 06:19:20;;;;;;;5.68;1.85;;;24.40;99.40;;;;;;4811519;29;20050;-82
2023/08/03 06:21:47;;;;;;;4.88;1.80;;;24.40;98.80;;;;;;4815120;29;20468;-82
2023/08/03 06:24:16;;;;;;;4.32;1.65;;;24.60;99.70;;;;;;4791363;29;20119;-80
2023/08/03 06:26:44;;;;;;;6.20;2.40;;;24.60;98.40;;;;;;4780137;29;20111;-81
2023/08/03 06:29:17;;;;;;;11.52;2.28;;;24.80;98.70;;;;;;4793192;29;20118;-83
2023/08/03 06:31:44;;;;;;;2.85;1.88;;;24.90;97.50;;;;;;4788389;29;20061;-83
2023/08/03 06:34:14;;;;;;;4.63;2.13;;;25.00;97.40;;;;;;4844419;29;20045;-81
2023/08/03 06:36:42;;;;;;;3.72;1.80;;;25.10;97.60;;;;;;4833428;29;20053;-83
2023/08/03 06:39:32;;;;;;;5.35;1.98;;;25.10;96.60;;;;;;4800385;29;20055;-83
2023/08/03 06:42:02;;;;;;;4.32;1.90;;;25.20;95.80;;;;;;4785770;29;20065;-83
2023/08/03 06:44:31;;;;;;;5.95;1.42;;;25.40;95.90;;;;;;4800054;29;20058;-82
2023/08/03 06:47:20;;;;;;;3.75;1.73;;;25.50;95.30;;;;;;4808915;29;20561;-82
2023/08/03 06:49:48;;;;;;;10.90;3.25;;;25.60;95.10;;;;;;4750553;29;20055;-85
2023/08/03 06:52:15;;;;;;;4.07;2.00;;;25.80;94.90;;;;;;4764008;29;20051;-83
2023/08/03 06:54:42;;;;;;;8.43;2.67;;;26.00;94.70;;;;;;4757230;29;20059;-84
2023/08/03 06:57:09;;;;;;;5.68;2.35;;;26.10;94.60;;;;;;4766766;29;20632;-83
2023/08/03 06:59:36;;;;;;;4.78;2.42;;;26.10;94.00;;;;;;4770467;29;21024;-82
2023/08/03 07:02:04;;;;;;;6.40;2.50;;;25.90;93.80;;;;;;4754564;29;20146;-83
2023/08/03 07:04:31;;;;;;;6.32;2.47;;;25.90;93.60;;;;;;4756275;29;20063;-83
2023/08/03 07:06:58;;;;;;;2.92;2.03;;;25.60;94.30;;;;;;4772480;29;20055;-84
2023/08/03 07:09:25;;;;;;;6.78;1.90;;;25.40;94.80;;;;;;4763180;29;20981;-84
2023/08/03 07:11:53;;;;;;;3.13;1.85;;;25.30;94.90;;;;;;4783608;29;20149;-84
2023/08/03 07:14:20;;;;;;;3.97;1.80;;;25.10;94.60;;;;;;4789260;29;20051;-83
2023/08/03 07:16:47;;;;;;;4.70;2.25;;;25.00;95.30;;;;;;4785324;29;20056;-84
2023/08/03 07:19:18;;;;;;;3.72;2.10;;;24.90;95.60;;;;;;4783689;29;20047;-83
2023/08/03 07:21:45;;;;;;;5.55;2.13;;;24.80;95.80;;;;;;4808931;29;20110;-84
2023/08/03 07:24:12;;;;;;;4.32;1.90;;;24.70;96.10;;;;;;4799781;29;20056;-82
2023/08/03 07:26:42;;;;;;;4.88;1.65;;;24.90;96.30;;;;;;4822998;29;20046;-84
2023/08/03 07:29:09;;;;;;;3.40;1.60;;;24.70;96.00;;;;;;4833725;29;20058;-83
2023/08/03 07:31:39;;;;;;;3.20;1.98;;;24.60;95.70;;;;;;4803153;29;20054;-83
2023/08/03 07:34:06;;;;;;;3.20;1.77;;;24.60;96.60;;;;;;4816857;29;20723;-84
2023/08/03 07:36:33;;;;;;;5.82;1.73;;;24.60;96.80;;;;;;4812344;29;20510;-83
2023/08/03 07:39:01;;;;;;;2.90;1.75;;;25.10;96.10;;;;;;4804840;29;20061;-83
2023/08/03 07:41:28;;;;;;;4.30;1.83;;;25.50;94.90;;;;;;4812248;29;20057;-83
2023/08/03 07:43:55;;;;;;;3.15;2.30;;;25.40;94.20;;;;;;4815558;29;20089;-83
2023/08/03 07:46:22;;;;;;;3.90;2.40;;;25.00;94.50;;;;;;4811765;29;20046;-83
2023/08/03 07:48:49;;;;;;;3.70;2.20;;;25.10;95.50;;;;;;4809173;29;20414;-83
2023/08/03 07:51:17;;;;;;;6.43;3.08;;;25.40;95.70;;;;;;4812622;29;20050;-83
2023/08/03 07:53:48;;;;;;;4.95;2.40;;;25.30;95.50;;;;;;4816672;29;20590;-83
2023/08/03 07:56:20;;;;;;;3.67;2.15;;;25.30;95.20;;;;;;4829026;29;20050;-83
2023/08/03 07:58:48;;;;;;;6.30;2.17;;;25.10;95.30;;;;;;4835663;29;20045;-84
2023/08/03 08:01:16;;;;;;;3.97;2.22;;;25.00;95.90;;;;;;4825134;29;20060;-83
2023/08/03 08:03:43;;;;;;;4.68;2.67;;;25.00;95.80;;;;;;4822125;29;20046;-83
2023/08/03 08:06:14;;;;;;;9.43;3.35;;;25.00;96.20;;;;;;4817066;29;20081;-84
2023/08/03 08:08:42;;;;;;;10.90;4.03;;;24.80;96.50;;;;;;4828601;29;20495;-84
2023/08/03 08:11:10;;;;;;;4.80;2.53;;;24.70;97.00;;;;;;4806141;29;20399;-84
2023/08/03 08:13:39;;;;;;;5.03;2.00;;;24.70;97.20;;;;;;4837027;29;20050;-84
2023/08/03 08:16:08;;;;;;;3.58;2.05;;;24.80;97.20;;;;;;4815858;29;20121;-84
2023/08/03 08:18:37;;;;;;;5.72;2.38;;;25.00;97.80;;;;;;4818748;29;20064;-83
2023/08/03 08:21:07;;;;;;;3.58;2.60;;;25.40;97.20;;;;;;4839742;29;20403;-84
2023/08/03 08:23:35;;;;;;;2.35;1.90;;;25.70;96.10;;;;;;4805241;29;20077;-82
2023/08/03 08:26:16;;;;;;;4.28;2.65;;;26.10;95.10;;;;;;4812477;29;20111;-84
2023/08/03 08:28:46;;;;;;;3.42;2.45;;;26.10;93.60;;;;;;4827199;29;20094;-83
2023/08/03 08:31:31;;;;;;;4.72;2.78;;;26.40;93.40;;;;;;4826044;29;20050;-83
2023/08/03 08:34:18;;;;;;;4.10;2.58;;;26.30;92.70;;;;;;4804704;29;20046;-85
2023/08/03 08:36:45;;;;;;;4.47;2.28;;;26.20;93.40;;;;;;4821501;29;20077;-84
2023/08/03 08:39:12;;;;;;;4.70;2.30;;;25.90;93.50;;;;;;4820848;29;20129;-83
2023/08/03 08:41:40;;;;;;;2.72;2.45;;;26.10;94.00;;;;;;4836621;29;20061;-83
2023/08/03 08:44:15;;;;;;;3.03;2.53;;;26.00;93.50;;;;;;4811884;29;20754;-81
2023/08/03 08:46:45;;;;;;;3.55;2.50;;;26.10;93.60;;;;;;4812933;29;20060;-84
2023/08/03 08:49:13;;;;;;;3.58;2.50;;;26.50;93.60;;;;;;4821211;29;20054;-84
2023/08/03 08:51:46;;;;;;;3.08;2.30;;;26.60;92.80;;;;;;4802744;29;20528;-83
2023/08/03 08:54:17;;;;;;;3.53;2.50;;;26.50;91.50;;;;;;4803075;29;20049;-83
2023/08/03 08:56:45;;;;;;;4.10;2.30;;;26.50;91.30;;;;;;4818718;29;20140;-83
2023/08/03 08:59:15;;;;;;;4.65;2.63;;;26.40;92.40;;;;;;4819167;29;20069;-82
2023/08/03 09:01:53;;;;;;;4.07;2.45;;;26.70;91.90;;;;;;4826359;29;20064;-83
2023/08/03 09:04:31;;;;;;;3.28;2.35;;;26.70;91.90;;;;;;4829036;29;20439;-84
2023/08/03 09:07:02;;;;;;;3.45;2.35;;;26.70;91.20;;;;;;4831784;29;20230;-83
2023/08/03 09:09:35;;;;;;;4.35;2.60;;;26.80;91.00;;;;;;4809372;29;20137;-83
2023/08/03 09:12:03;;;;;;;4.63;2.50;;;27.00;91.20;;;;;;4804716;29;20081;-83
2023/08/03 09:14:49;;;;;;;4.32;2.47;;;27.00;91.10;;;;;;4824841;29;20169;-83
2023/08/03 09:17:20;;;;;;;4.93;2.50;;;26.90;91.90;;;;;;4803730;29;20046;-83
2023/08/03 09:19:47;;;;;;;4.30;2.47;;;26.90;91.40;;;;;;4823640;29;20145;-84
2023/08/03 09:22:22;;;;;;;4.30;2.60;;;26.70;90.60;;;;;;4815526;29;20060;-82
2023/08/03 09:25:07;;;;;;;3.85;2.67;;;26.80;91.10;;;;;;4794669;29;20094;-84
2023/08/03 09:27:37;;;;;;;3.78;2.90;;;26.80;91.10;;;;;;4800441;29;20399;-83
2023/08/03 09:30:07;;;;;;;3.75;3.03;;;27.00;90.80;;;;;;4809957;29;20173;-84
2023/08/03 09:32:39;;;;;;;4.63;2.80;;;27.10;91.10;;;;;;4795178;29;20065;-82
2023/08/03 09:35:22;;;;;;;3.92;2.95;;;27.20;91.30;;;;;;4822315;29;20509;-82
2023/08/03 09:37:54;;;;;;;3.00;2.70;;;27.20;91.00;;;;;;4810660;29;20054;-83
2023/08/03 09:40:23;;;;;;;4.25;2.92;;;27.20;90.50;;;;;;4822089;29;20053;-83
2023/08/03 09:42:53;;;;;;;3.53;3.00;;;27.00;90.10;;;;;;4799812;29;20068;-83
2023/08/03 09:45:21;;;;;;;3.97;2.88;;;27.20;90.60;;;;;;4805076;29;20049;-83
2023/08/03 09:48:02;;;;;;;4.65;2.90;;;27.10;90.20;;;;;;4832974;29;20053;-83
2023/08/03 09:50:32;;;;;;;4.40;3.13;;;27.30;90.70;;;;;;4810182;29;20058;-83
2023/08/03 09:53:05;;;;;;;4.00;2.67;;;26.80;89.50;;;;;;4820768;29;20049;-82
2023/08/03 09:55:47;;;;;;;8.70;3.45;;;26.90;90.40;;;;;;4826517;29;20046;-84
2023/08/03 09:58:19;;;;;;;4.03;2.67;;;26.90;90.00;;;;;;4812401;29;20050;-82
2023/08/03 10:00:47;;;;;;;;;;;26.90;91.30;;;;;;4808599;29;20101;-81
2023/08/03 10:03:18;;;;;;;3.83;2.70;;;26.90;90.60;;;;;;4825389;29;19993;-82
2023/08/03 10:06:06;;;;;;;4.87;2.90;;;26.70;90.00;;;;;;4811029;29;20053;-83
2023/08/03 10:08:49;;;;;;;7.40;3.55;;;26.70;90.60;;;;;;4812035;29;20447;-83
2023/08/03 10:11:17;;;;;;;3.38;2.63;;;26.80;90.90;;;;;;4809939;29;20053;-82
2023/08/03 10:13:50;;;;;;;3.60;2.78;;;26.80;90.00;;;;;;4827975;29;20065;-83
2023/08/03 10:16:18;;;;;;;5.70;3.45;;;26.90;90.40;;;;;;4808635;29;20056;-81
2023/08/03 10:18:47;;;;;;;3.90;2.78;;;26.90;90.20;;;;;;4835737;29;20447;-84
2023/08/03 10:21:26;;;;;;;5.18;2.58;;;26.90;88.60;;;;;;4812737;29;20120;-82
2023/08/03 10:24:11;;;;;;;4.10;2.95;;;27.00;89.10;;;;;;4816618;29;20050;-84
2023/08/03 10:26:40;;;;;;;3.53;2.92;;;27.20;88.00;;;;;;4820582;29;20057;-84
2023/08/03 10:29:08;;;;;;;5.47;2.88;;;27.10;87.60;;;;;;4812959;29;20064;-84
2023/08/03 10:31:56;;;;;;;5.35;2.70;;;27.00;87.40;;;;;;4838871;29;20081;-83
2023/08/03 10:34:26;;;;;;;6.10;2.70;;;27.00;87.30;;;;;;4801876;29;20104;-83
2023/08/03 10:36:55;;;;;;;4.95;2.22;;;27.00;86.70;;;;;;4816088;29;20114;-83
2023/08/03 10:39:49;;;;;;;5.55;2.78;;;27.00;86.70;;;;;;4802380;29;20985;-84
2023/08/03 10:42:35;;;;;;;4.55;2.20;;;26.90;86.30;;;;;;4826264;29;20058;-84
2023/08/03 10:45:21;;;;;;;4.32;2.55;;;27.10;85.80;;;;;;4814382;29;20085;-83
2023/08/03 10:47:49;;;;;;;5.47;2.22;;;27.30;85.20;;;;;;4831118;29;20503;-83
2023/08/03 10:50:16;;;;;;;3.50;2.33;;;27.50;83.80;;;;;;4807509;29;20159;-83
2023/08/03 10:52:44;;;;;;;4.78;2.28;;;27.40;83.70;;;;;;4810211;29;20069;-83
2023/08/03 10:55:26;;;;;;;3.15;2.30;;;27.30;82.60;;;;;;4822316;29;20444;-83
2023/08/03 10:57:57;;;;;;;4.55;2.60;;;27.10;81.60;;;;;;4804352;29;20045;-83
2023/08/03 11:00:24;;;;;;;4.32;2.20;;;27.10;79.60;;;;;;4797943;29;20061;-83
2023/08/03 11:02:51;;;;;;;3.20;1.67;;;27.10;79.00;;;;;;4808963;29;20132;-83
2023/08/03 11:05:18;;;;;;;3.30;2.08;;;27.10;79.40;;;;;;4813244;29;20053;-84
2023/08/03 11:07:46;;;;;;;3.05;1.75;;;27.10;77.40;;;;;;4829370;29;20053;-83
2023/08/03 11:10:16;;;;;;;3.00;2.13;;;27.10;78.30;;;;;;4814078;29;20395;-83
2023/08/03 11:12:44;;;;;;;6.35;2.13;;;27.20;78.20;;;;;;4823099;29;20540;-84
2023/08/03 11:15:18;;;;;;;3.70;1.77;;;27.30;79.30;;;;;;4808641;29;20049;-84
2023/08/03 11:17:49;;;;;;;3.13;1.80;;;27.30;76.10;;;;;;4814890;29;20136;-83
2023/08/03 11:20:17;;;;;;;3.75;1.75;;;27.20;75.90;;;;;;4817074;29;20140;-84
2023/08/03 11:22:46;;;;;;;3.47;1.80;;;27.20;75.30;;;;;;4832656;29;20085;-83
2023/08/03 11:25:17;;;;;;;3.03;1.75;;;27.20;75.40;;;;;;4813121;29;20054;-81
2023/08/03 11:27:44;;;;;;;3.55;2.03;;;27.20;75.10;;;;;;4815573;29;20137;-83
2023/08/03 11:30:12;;;;;;;4.32;2.05;;;27.20;75.90;;;;;;4833402;29;20135;-83
2023/08/03 11:32:40;;;;;;;3.70;1.90;;;27.20;74.70;;;;;;4824079;29;20585;-82
2023/08/03 11:35:10;;;;;;;3.60;1.60;;;27.20;75.40;;;;;;4806908;29;20049;-83
2023/08/03 11:37:37;;;;;;;3.63;2.00;;;27.30;76.00;;;;;;4830944;29;21029;-83
2023/08/03 11:40:06;;;;;;;2.42;2.03;;;27.50;76.30;;;;;;4817328;29;20057;-83
2023/08/03 11:42:39;;;;;;;2.40;2.15;;;27.60;74.90;;;;;;4826119;29;20157;-83
2023/08/03 11:45:06;;;;;;;2.67;1.75;;;27.50;75.50;;;;;;4805546;29;20061;-83
2023/08/03 11:47:47;;;;;;;3.85;1.55;;;27.50;74.70;;;;;;4823481;29;20058;-83
2023/08/03 11:50:19;;;;;;;3.03;1.80;;;27.60;75.60;;;;;;4819267;29;20050;-82
2023/08/03 11:52:46;;;;;;;2.58;1.83;;;27.70;75.20;;;;;;4819024;29;20052;-83
2023/08/03 11:55:34;;;;;;;3.65;2.00;;;27.70;74.40;;;;;;4818249;29;20428;-83
2023/08/03 11:58:10;;;;;;;3.30;2.10;;;27.60;74.70;;;;;;4832910;29;20061;-83
2023/08/03 12:00:43;;;;;;;3.95;1.98;;;27.70;74.70;;;;;;4810068;29;20057;-83
2023/08/03 12:03:17;;;;;;;4.28;1.90;;;27.90;74.70;;;;;;4808012;29;20053;-83
2023/08/03 12:05:50;;;;;;;3.00;1.60;;;27.70;72.20;;;;;;4818637;29;20053;-83
2023/08/03 12:08:49;;;;;;;3.55;1.10;;;27.70;72.40;;;;;;4811200;29;20054;-83
2023/08/03 12:11:17;;;;;;;2.08;0.90;;;27.90;70.20;;;;;;4802523;29;20053;-83
2023/08/03 12:13:50;;;;;;;3.13;0.93;;;28.00;68.50;;;;;;4831572;29;20053;-82
2023/08/03 12:16:18;;;;;;;3.28;1.13;;;28.10;66.30;;;;;;4818409;29;20064;-82
2023/08/03 12:18:45;;;;;;;2.33;1.67;;;28.20;67.30;;;;;;4816535;29;20141;-81
2023/08/03 12:21:17;;;;;;;2.42;1.23;;;28.10;68.90;;;;;;4827960;29;20050;-83
2023/08/03 12:23:45;;;;;;;1.42;0.70;;;28.30;68.70;;;;;;4812486;29;20068;-83
2023/08/03 12:26:12;;;;;;;3.65;0.85;;;28.50;65.80;;;;;;4817153;29;20064;-83
2023/08/03 12:28:39;;;;;;;3.55;1.00;;;28.30;64.80;;;;;;4822029;29;20053;-85
2023/08/03 12:31:08;;;;;;;3.55;1.05;;;28.30;65.10;;;;;;4811263;29;20121;-83
2023/08/03 12:33:35;;;;;;;1.83;1.00;;;28.40;64.10;;;;;;4833088;29;20486;-83
2023/08/03 12:36:02;;;;;;;1.98;0.77;;;28.30;64.60;;;;;;4831314;29;20064;-82
2023/08/03 12:38:29;;;;;;;1.70;1.08;;;28.30;65.70;;;;;;4823265;29;20058;-83
2023/08/03 12:40:56;;;;;;;2.72;1.20;;;28.20;64.50;;;;;;4828837;29;20059;-84
2023/08/03 12:43:24;;;;;;;1.75;1.02;;;28.30;66.10;;;;;;4814014;29;20064;-85
2023/08/03 12:45:51;;;;;;;3.92;1.55;;;28.10;66.40;;;;;;4798895;29;20462;-83
2023/08/03 12:48:19;;;;;;;3.65;1.30;;;28.20;67.20;;;;;;4825933;29;20077;-83
2023/08/03 12:50:46;;;;;;;2.05;1.63;;;28.20;67.10;;;;;;4832807;29;20050;-84
2023/08/03 12:53:13;;;;;;;2.70;1.48;;;28.30;67.40;;;;;;4825060;29;20132;-84
2023/08/03 12:55:41;;;;;;;2.67;1.42;;;28.20;67.80;;;;;;4829254;29;20132;-81
2023/08/03 12:58:08;;;;;;;3.10;1.33;;;28.20;68.70;;;;;;4807836;29;20042;-83
2023/08/03 13:00:35;;;;;;;1.95;1.10;;;28.10;69.20;;;;;;4811399;29;20054;-83
2023/08/03 13:03:03;;;;;;;3.05;1.48;;;28.20;68.70;;;;;;4833479;29;20082;-84
2023/08/03 13:05:34;;;;;;;4.03;2.05;;;28.20;67.80;;;;;;4834217;29;20061;-82
2023/08/03 13:08:04;;;;;;;2.65;1.42;;;28.20;68.20;;;;;;4823799;29;20153;-85
2023/08/03 13:10:33;;;;;;;1.58;1.00;;;28.10;69.40;;;;;;4814970;29;20081;-84
2023/08/03 13:13:00;;;;;;;2.45;1.33;;;28.10;69.60;;;;;;4819692;29;20565;-84
2023/08/03 13:15:29;;;;;;;2.25;1.38;;;28.10;70.50;;;;;;4827057;29;20053;-85
2023/08/03 13:17:56;;;;;;;4.65;0.80;;;27.90;69.50;;;;;;4816362;29;20533;-84
2023/08/03 13:20:26;;;;;;;1.33;0.73;;;27.90;66.40;;;;;;4826699;29;20049;-81
2023/08/03 13:22:54;;;;;;;2.40;0.70;;;28.10;63.50;;;;;;4825694;29;22486;-82
2023/08/03 13:25:21;;;;;;;2.67;0.80;;;28.20;63.00;;;;;;4818484;29;20568;-82
2023/08/03 13:27:51;;;;;;;1.80;0.75;;;28.10;62.10;;;;;;4824050;29;20144;-82
2023/08/03 13:30:20;;;;;;;4.25;0.85;;;28.10;62.80;;;;;;4800286;29;20580;-83
2023/08/03 13:32:47;;;;;;;1.38;0.60;;;28.10;62.90;;;;;;4816697;29;20087;-84
2023/08/03 13:35:14;;;;;;;4.60;0.80;;;28.10;63.40;;;;;;4801208;29;20050;-83
2023/08/03 13:37:41;;;;;;;1.85;0.57;;;28.10;63.60;;;;;;4828233;29;20105;-83
2023/08/03 13:40:09;;;;;;;5.07;1.48;;;28.10;63.70;;;;;;4825254;29;20057;-82
2023/08/03 13:42:36;;;;;;;1.73;0.82;;;28.20;63.10;;;;;;4811239;29;20061;-83
2023/08/03 13:45:04;;;;;;;2.10;1.23;;;28.20;62.60;;;;;;4829964;29;20065;-84
2023/08/03 13:47:31;;;;;;;1.90;1.00;;;28.20;62.90;;;;;;4794377;29;20414;-82
2023/08/03 13:49:59;;;;;;;2.60;1.33;;;28.30;62.90;;;;;;4821006;29;20605;-84
2023/08/03 13:52:26;;;;;;;3.63;2.33;;;28.30;63.30;;;;;;4820374;29;20046;-83
2023/08/03 13:54:53;;;;;;;4.43;2.83;;;28.30;63.00;;;;;;4797350;29;20060;-83
2023/08/03 13:57:21;;;;;;;2.60;1.90;;;28.40;63.60;;;;;;4813161;29;20042;-83
2023/08/03 13:59:51;;;;;;;2.35;1.55;;;28.20;62.50;;;;;;4808229;29;20042;-81
2023/08/03 14:02:21;;;;;;;3.58;2.58;;;28.20;64.40;;;;;;4827635;29;20050;-83
2023/08/03 14:05:08;;;;;;;4.65;3.78;;;28.20;64.40;;;;;;4818293;29;20493;-84
2023/08/03 14:07:35;;;;;;;4.57;3.60;;;28.20;64.20;;;;;;4830275;29;20073;-84
2023/08/03 14:10:07;;;;;;;5.30;2.83;;;28.30;63.30;;;;;;4852396;29;20098;-84
2023/08/03 14:12:38;;;;;;;4.18;2.67;;;28.40;63.30;;;;;;4814212;29;20528;-83
2023/08/03 14:15:08;;;;;;;3.45;1.92;;;28.30;63.00;;;;;;4828999;29;20065;-85
2023/08/03 14:17:38;;;;;;;2.13;1.40;;;28.30;62.70;;;;;;4827805;29;20792;-83
2023/08/03 14:20:08;;;;;;;2.55;1.70;;;28.10;62.70;;;;;;4849310;29;20955;-84
2023/08/03 14:22:38;;;;;;;2.72;1.60;;;28.20;63.50;;;;;;4844995;29;20565;-84
2023/08/03 14:25:07;;;;;;;4.10;2.38;;;28.20;63.00;;;;;;4826235;29;20053;-84
2023/08/03 14:27:37;;;;;;;5.63;1.92;;;28.30;62.70;;;;;;4842721;29;20661;-82
2023/08/03 14:30:06;;;;;;;2.10;1.10;;;28.30;62.20;;;;;;4819374;29;20052;-83
2023/08/03 14:32:33;;;;;;;4.75;1.98;;;28.20;62.80;;;;;;4841450;29;20532;-85
2023/08/03 14:35:01;;;;;;;4.68;2.55;;;28.10;62.10;;;;;;4832337;29;20576;-84
2023/08/03 14:37:31;;;;;;;6.30;4.40;;;28.10;63.00;;;;;;4842603;29;20196;-84
2023/08/03 14:39:59;;;;;;;7.53;4.53;;;28.10;62.60;;;;;;4847990;29;20171;-85
2023/08/03 14:42:28;;;;;;;5.70;3.90;;;28.10;63.20;;;;;;4818183;29;20109;-84
2023/08/03 14:44:57;;;;;;;5.43;3.47;;;28.10;62.60;;;;;;4818762;29;20058;-84
2023/08/03 14:47:24;;;;;;;3.63;1.90;;;28.10;63.50;;;;;;4835215;29;20926;-83
2023/08/03 14:49:51;;;;;;;2.30;1.65;;;28.20;64.70;;;;;;4832521;29;20443;-84
2023/08/03 14:52:21;;;;;;;3.97;2.42;;;28.20;64.80;;;;;;4843529;29;20386;-83
2023/08/03 14:54:51;;;;;;;3.67;2.70;;;28.30;63.40;;;;;;4828455;29;20053;-84
2023/08/03 14:57:18;;;;;;;3.40;2.20;;;28.20;63.10;;;;;;4813874;29;20096;-84
2023/08/03 14:59:46;;;;;;;3.28;1.88;;;28.00;63.20;;;;;;4819102;29;20099;-83
2023/08/03 15:02:13;;;;;;;3.42;2.10;;;28.00;63.30;;;;;;4825199;29;20056;-84
2023/08/03 15:04:45;;;;;;;2.78;1.92;;;28.00;63.40;;;;;;4839452;29;20053;-83
2023/08/03 15:07:13;;;;;;;2.95;1.65;;;27.90;63.70;;;;;;4829064;29;20495;-84
2023/08/03 15:09:44;;;;;;;5.75;1.70;;;27.90;63.70;;;;;;4822638;29;20055;-84
2023/08/03 15:12:11;;;;;;;4.13;2.22;;;27.90;63.80;;;;;;4847027;29;20049;-84
2023/08/03 15:14:38;;;;;;;1.98;1.00;;;27.90;63.70;;;;;;4831490;29;20053;-83
2023/08/03 15:17:13;;;;;;;6.03;1.30;;;27.80;64.50;;;;;;4819513;29;20053;-83
2023/08/03 15:19:53;;;;;;;2.72;1.10;;;27.80;64.70;;;;;;4836931;29;20064;-83
2023/08/03 15:22:23;;;;;;;4.20;1.40;;;27.70;64.80;;;;;;4854219;29;20403;-83
2023/08/03 15:24:50;;;;;;;3.42;1.40;;;27.70;64.90;;;;;;4830685;29;20060;-84
2023/08/03 15:27:20;;;;;;;2.45;1.75;;;27.80;64.80;;;;;;4839734;29;20049;-82